sensor_id;sensor_type;location;lat;lon;timestamp;P1;durP1;ratioP1;P2;durP2;ratioP2
71639;SDS011;60912;48.968;10.124;2023-01-15T00:04:11;1.60;;;0.40;;
71639;SDS011;60912;48.968;10.124;2023-01-15T00:06:37;1.17;;;0.50;;
71639;SDS011;60912;48.968;10.124;2023-01-15T00:09:05;1.42;;;0.50;;
71639;SDS011;60912;48.968;10.124;2023-01-15T00:11:31;2.13;;;0.50;;
71639;SDS011;60912;48.968;10.124;2023-01-15T00:13:57;3.33;;;0.75;;
71639;SDS011;60912;48.968;10.124;2023-01-15T00:16:23;2.60;;;0.50;;
71639;SDS011;60912;48.968;10.124;2023-01-15T00:18:54;2.30;;;0.57;;
71639;SDS011;60912;48.968;10.124;2023-01-15T00:21:21;2.73;;;0.60;;
71639;SDS011;60912;48.968;10.124;2023-01-15T00:23:47;1.88;;;0.50;;
71639;SDS011;60912;48.968;10.124;2023-01-15T00:26:31;1.25;;;0.40;;
71639;SDS011;60912;48.968;10.124;2023-01-15T00:29:16;1.42;;;0.38;;
71639;SDS011;60912;48.968;10.124;2023-01-15T00:31:42;1.03;;;0.40;;
71639;SDS011;60912;48.968;10.124;2023-01-15T00:34:09;1.13;;;0.40;;
71639;SDS011;60912;48.968;10.124;2023-01-15T00:36:35;2.20;;;0.43;;
71639;SDS011;60912;48.968;10.124;2023-01-15T00:39:06;1.07;;;0.50;;
71639;SDS011;60912;48.968;10.124;2023-01-15T00:41:37;4.03;;;0.65;;
71639;SDS011;60912;48.968;10.124;2023-01-15T00:44:03;1.50;;;0.50;;
71639;SDS011;60912;48.968;10.124;2023-01-15T00:46:28;1.45;;;0.45;;
71639;SDS011;60912;48.968;10.124;2023-01-15T00:48:53;1.90;;;0.50;;
71639;SDS011;60912;48.968;10.124;2023-01-15T00:51:19;2.70;;;0.37;;
71639;SDS011;60912;48.968;10.124;2023-01-15T00:53:44;0.83;;;0.40;;
71639;SDS011;60912;48.968;10.124;2023-01-15T00:56:10;1.30;;;0.40;;
71639;SDS011;60912;48.968;10.124;2023-01-15T00:58:35;0.90;;;0.50;;
71639;SDS011;60912;48.968;10.124;2023-01-15T01:01:00;1.17;;;0.43;;
71639;SDS011;60912;48.968;10.124;2023-01-15T01:03:26;1.63;;;0.60;;
71639;SDS011;60912;48.968;10.124;2023-01-15T01:05:52;1.67;;;0.40;;
71639;SDS011;60912;48.968;10.124;2023-01-15T01:08:17;1.57;;;0.40;;
71639;SDS011;60912;48.968;10.124;2023-01-15T01:10:43;3.97;;;0.40;;
71639;SDS011;60912;48.968;10.124;2023-01-15T01:13:09;0.87;;;0.40;;
71639;SDS011;60912;48.968;10.124;2023-01-15T01:15:38;1.23;;;0.40;;
71639;SDS011;60912;48.968;10.124;2023-01-15T01:18:03;1.67;;;0.30;;
71639;SDS011;60912;48.968;10.124;2023-01-15T01:20:30;1.48;;;0.40;;
71639;SDS011;60912;48.968;10.124;2023-01-15T01:22:55;1.27;;;0.40;;
71639;SDS011;60912;48.968;10.124;2023-01-15T01:25:21;2.23;;;0.40;;
71639;SDS011;60912;48.968;10.124;2023-01-15T01:27:47;1.77;;;0.40;;
71639;SDS011;60912;48.968;10.124;2023-01-15T01:30:13;1.25;;;0.40;;
71639;SDS011;60912;48.968;10.124;2023-01-15T01:32:39;1.43;;;0.40;;
71639;SDS011;60912;48.968;10.124;2023-01-15T01:35:08;1.33;;;0.40;;
71639;SDS011;60912;48.968;10.124;2023-01-15T01:37:34;1.30;;;0.40;;
71639;SDS011;60912;48.968;10.124;2023-01-15T01:39:59;2.00;;;0.33;;
71639;SDS011;60912;48.968;10.124;2023-01-15T01:42:27;2.83;;;0.40;;
71639;SDS011;60912;48.968;10.124;2023-01-15T01:44:57;0.93;;;0.30;;
71639;SDS011;60912;48.968;10.124;2023-01-15T01:47:24;0.77;;;0.30;;
71639;SDS011;60912;48.968;10.124;2023-01-15T01:49:53;1.35;;;0.30;;
71639;SDS011;60912;48.968;10.124;2023-01-15T01:52:26;1.17;;;0.40;;
71639;SDS011;60912;48.968;10.124;2023-01-15T01:54:56;1.33;;;0.40;;
71639;SDS011;60912;48.968;10.124;2023-01-15T01:57:22;1.17;;;0.30;;
71639;SDS011;60912;48.968;10.124;2023-01-15T01:59:48;0.50;;;0.30;;
71639;SDS011;60912;48.968;10.124;2023-01-15T02:02:15;0.82;;;0.30;;
71639;SDS011;60912;48.968;10.124;2023-01-15T02:04:44;1.47;;;0.30;;
71639;SDS011;60912;48.968;10.124;2023-01-15T02:07:09;0.63;;;0.30;;
71639;SDS011;60912;48.968;10.124;2023-01-15T02:09:35;1.03;;;0.40;;
71639;SDS011;60912;48.968;10.124;2023-01-15T02:12:22;1.13;;;0.30;;
71639;SDS011;60912;48.968;10.124;2023-01-15T02:15:02;1.80;;;0.40;;
71639;SDS011;60912;48.968;10.124;2023-01-15T02:20:28;1.15;;;0.35;;
71639;SDS011;60912;48.968;10.124;2023-01-15T02:28:37;1.07;;;0.40;;
71639;SDS011;60912;48.968;10.124;2023-01-15T02:33:50;0.98;;;0.30;;
71639;SDS011;60912;48.968;10.124;2023-01-15T02:36:22;1.17;;;0.30;;
71639;SDS011;60912;48.968;10.124;2023-01-15T02:38:51;0.93;;;0.25;;
71639;SDS011;60912;48.968;10.124;2023-01-15T02:41:23;1.00;;;0.40;;
71639;SDS011;60912;48.968;10.124;2023-01-15T02:43:53;0.95;;;0.30;;
71639;SDS011;60912;48.968;10.124;2023-01-15T02:46:21;1.00;;;0.30;;
71639;SDS011;60912;48.968;10.124;2023-01-15T02:48:51;1.10;;;0.40;;
71639;SDS011;60912;48.968;10.124;2023-01-15T02:51:22;1.05;;;0.40;;
71639;SDS011;60912;48.968;10.124;2023-01-15T02:53:52;1.20;;;0.30;;
71639;SDS011;60912;48.968;10.124;2023-01-15T02:56:22;0.60;;;0.35;;
71639;SDS011;60912;48.968;10.124;2023-01-15T02:58:52;0.85;;;0.30;;
71639;SDS011;60912;48.968;10.124;2023-01-15T03:01:23;1.35;;;0.40;;
71639;SDS011;60912;48.968;10.124;2023-01-15T03:03:56;1.05;;;0.30;;
71639;SDS011;60912;48.968;10.124;2023-01-15T03:09:29;0.95;;;0.30;;
71639;SDS011;60912;48.968;10.124;2023-01-15T03:12:03;0.82;;;0.30;;
71639;SDS011;60912;48.968;10.124;2023-01-15T03:17:08;1.08;;;0.47;;
71639;SDS011;60912;48.968;10.124;2023-01-15T03:22:29;0.60;;;0.30;;
71639;SDS011;60912;48.968;10.124;2023-01-15T03:25:05;0.93;;;0.30;;
71639;SDS011;60912;48.968;10.124;2023-01-15T03:27:34;1.50;;;0.40;;
71639;SDS011;60912;48.968;10.124;2023-01-15T03:30:03;1.17;;;0.40;;
71639;SDS011;60912;48.968;10.124;2023-01-15T03:32:31;1.23;;;0.40;;
71639;SDS011;60912;48.968;10.124;2023-01-15T03:34:57;5.00;;;0.40;;
71639;SDS011;60912;48.968;10.124;2023-01-15T03:37:24;0.95;;;0.40;;
71639;SDS011;60912;48.968;10.124;2023-01-15T03:39:52;0.70;;;0.30;;
71639;SDS011;60912;48.968;10.124;2023-01-15T03:42:22;0.63;;;0.30;;
71639;SDS011;60912;48.968;10.124;2023-01-15T03:50:26;1.05;;;0.40;;
71639;SDS011;60912;48.968;10.124;2023-01-15T03:55:44;1.30;;;0.40;;
71639;SDS011;60912;48.968;10.124;2023-01-15T03:58:25;1.02;;;0.40;;
71639;SDS011;60912;48.968;10.124;2023-01-15T04:00:55;1.95;;;0.30;;
71639;SDS011;60912;48.968;10.124;2023-01-15T04:03:23;0.63;;;0.30;;
71639;SDS011;60912;48.968;10.124;2023-01-15T04:05:51;0.80;;;0.40;;
71639;SDS011;60912;48.968;10.124;2023-01-15T04:08:20;1.00;;;0.30;;
71639;SDS011;60912;48.968;10.124;2023-01-15T04:10:53;0.70;;;0.30;;
71639;SDS011;60912;48.968;10.124;2023-01-15T04:13:21;1.33;;;0.32;;
71639;SDS011;60912;48.968;10.124;2023-01-15T04:15:46;1.13;;;0.63;;
71639;SDS011;60912;48.968;10.124;2023-01-15T04:18:12;0.75;;;0.32;;
71639;SDS011;60912;48.968;10.124;2023-01-15T04:20:37;2.47;;;0.40;;
71639;SDS011;60912;48.968;10.124;2023-01-15T04:23:02;1.27;;;0.30;;
71639;SDS011;60912;48.968;10.124;2023-01-15T04:25:28;1.30;;;0.30;;
71639;SDS011;60912;48.968;10.124;2023-01-15T04:27:53;0.70;;;0.40;;
71639;SDS011;60912;48.968;10.124;2023-01-15T04:30:19;1.33;;;0.50;;
71639;SDS011;60912;48.968;10.124;2023-01-15T04:32:47;1.07;;;0.40;;
71639;SDS011;60912;48.968;10.124;2023-01-15T04:35:13;0.70;;;0.30;;
71639;SDS011;60912;48.968;10.124;2023-01-15T04:37:39;0.80;;;0.30;;
71639;SDS011;60912;48.968;10.124;2023-01-15T04:40:04;0.60;;;0.30;;
71639;SDS011;60912;48.968;10.124;2023-01-15T04:42:30;1.40;;;0.30;;
71639;SDS011;60912;48.968;10.124;2023-01-15T04:45:14;1.02;;;0.30;;
71639;SDS011;60912;48.968;10.124;2023-01-15T04:47:40;1.33;;;0.30;;
71639;SDS011;60912;48.968;10.124;2023-01-15T04:50:05;0.43;;;0.30;;
71639;SDS011;60912;48.968;10.124;2023-01-15T04:52:31;0.85;;;0.30;;
71639;SDS011;60912;48.968;10.124;2023-01-15T04:54:57;0.77;;;0.30;;
71639;SDS011;60912;48.968;10.124;2023-01-15T04:57:22;1.50;;;0.40;;
71639;SDS011;60912;48.968;10.124;2023-01-15T04:59:47;2.50;;;0.30;;
71639;SDS011;60912;48.968;10.124;2023-01-15T05:02:13;0.70;;;0.30;;
71639;SDS011;60912;48.968;10.124;2023-01-15T05:04:38;1.60;;;0.30;;
71639;SDS011;60912;48.968;10.124;2023-01-15T05:07:04;1.85;;;0.30;;
71639;SDS011;60912;48.968;10.124;2023-01-15T05:09:29;0.80;;;0.30;;
71639;SDS011;60912;48.968;10.124;2023-01-15T05:11:55;3.25;;;0.40;;
71639;SDS011;60912;48.968;10.124;2023-01-15T05:14:20;0.47;;;0.20;;
71639;SDS011;60912;48.968;10.124;2023-01-15T05:16:46;0.47;;;0.23;;
71639;SDS011;60912;48.968;10.124;2023-01-15T05:19:11;0.70;;;0.30;;
71639;SDS011;60912;48.968;10.124;2023-01-15T05:21:39;0.63;;;0.30;;
71639;SDS011;60912;48.968;10.124;2023-01-15T05:24:06;1.17;;;0.30;;
71639;SDS011;60912;48.968;10.124;2023-01-15T05:26:33;0.30;;;0.20;;
71639;SDS011;60912;48.968;10.124;2023-01-15T05:28:59;0.90;;;0.30;;
71639;SDS011;60912;48.968;10.124;2023-01-15T05:31:26;0.30;;;0.30;;
71639;SDS011;60912;48.968;10.124;2023-01-15T05:33:53;1.05;;;0.30;;
71639;SDS011;60912;48.968;10.124;2023-01-15T05:36:20;0.70;;;0.30;;
71639;SDS011;60912;48.968;10.124;2023-01-15T05:38:47;3.30;;;0.30;;
71639;SDS011;60912;48.968;10.124;2023-01-15T05:41:14;0.70;;;0.30;;
71639;SDS011;60912;48.968;10.124;2023-01-15T05:44:01;1.93;;;0.30;;
71639;SDS011;60912;48.968;10.124;2023-01-15T05:46:28;0.25;;;0.20;;
71639;SDS011;60912;48.968;10.124;2023-01-15T05:48:54;0.30;;;0.20;;
71639;SDS011;60912;48.968;10.124;2023-01-15T05:51:23;1.00;;;0.30;;
71639;SDS011;60912;48.968;10.124;2023-01-15T05:53:48;0.75;;;0.30;;
71639;SDS011;60912;48.968;10.124;2023-01-15T05:56:14;0.73;;;0.30;;
71639;SDS011;60912;48.968;10.124;2023-01-15T05:58:39;0.53;;;0.30;;
71639;SDS011;60912;48.968;10.124;2023-01-15T06:01:08;0.30;;;0.20;;
71639;SDS011;60912;48.968;10.124;2023-01-15T06:03:34;0.50;;;0.30;;
71639;SDS011;60912;48.968;10.124;2023-01-15T06:06:00;0.47;;;0.30;;
71639;SDS011;60912;48.968;10.124;2023-01-15T06:08:25;0.50;;;0.30;;
71639;SDS011;60912;48.968;10.124;2023-01-15T06:10:50;2.03;;;0.37;;
71639;SDS011;60912;48.968;10.124;2023-01-15T06:13:16;0.90;;;0.33;;
71639;SDS011;60912;48.968;10.124;2023-01-15T06:15:42;1.60;;;0.30;;
71639;SDS011;60912;48.968;10.124;2023-01-15T06:18:08;0.20;;;0.20;;
71639;SDS011;60912;48.968;10.124;2023-01-15T06:20:35;0.77;;;0.30;;
71639;SDS011;60912;48.968;10.124;2023-01-15T06:23:03;0.40;;;0.20;;
71639;SDS011;60912;48.968;10.124;2023-01-15T06:25:31;0.82;;;0.40;;
71639;SDS011;60912;48.968;10.124;2023-01-15T06:27:59;0.77;;;0.30;;
71639;SDS011;60912;48.968;10.124;2023-01-15T06:30:24;1.25;;;0.30;;
71639;SDS011;60912;48.968;10.124;2023-01-15T06:32:50;0.57;;;0.30;;
71639;SDS011;60912;48.968;10.124;2023-01-15T06:35:15;0.40;;;0.20;;
71639;SDS011;60912;48.968;10.124;2023-01-15T06:37:40;0.30;;;0.20;;
71639;SDS011;60912;48.968;10.124;2023-01-15T06:40:06;0.30;;;0.20;;
71639;SDS011;60912;48.968;10.124;2023-01-15T06:42:32;0.20;;;0.20;;
71639;SDS011;60912;48.968;10.124;2023-01-15T06:45:16;1.27;;;0.30;;
71639;SDS011;60912;48.968;10.124;2023-01-15T06:48:00;0.20;;;0.20;;
71639;SDS011;60912;48.968;10.124;2023-01-15T06:50:25;0.43;;;0.30;;
71639;SDS011;60912;48.968;10.124;2023-01-15T06:52:50;0.83;;;0.30;;
71639;SDS011;60912;48.968;10.124;2023-01-15T06:55:16;0.50;;;0.30;;
71639;SDS011;60912;48.968;10.124;2023-01-15T06:57:42;1.17;;;0.50;;
71639;SDS011;60912;48.968;10.124;2023-01-15T07:00:09;0.50;;;0.30;;
71639;SDS011;60912;48.968;10.124;2023-01-15T07:02:36;0.68;;;0.30;;
71639;SDS011;60912;48.968;10.124;2023-01-15T07:05:02;1.23;;;0.40;;
71639;SDS011;60912;48.968;10.124;2023-01-15T07:07:28;0.93;;;0.40;;
71639;SDS011;60912;48.968;10.124;2023-01-15T07:09:54;2.17;;;0.40;;
71639;SDS011;60912;48.968;10.124;2023-01-15T07:12:19;1.50;;;0.50;;
71639;SDS011;60912;48.968;10.124;2023-01-15T07:14:45;1.00;;;0.40;;
71639;SDS011;60912;48.968;10.124;2023-01-15T07:17:11;1.13;;;0.30;;
71639;SDS011;60912;48.968;10.124;2023-01-15T07:19:37;3.03;;;0.70;;
71639;SDS011;60912;48.968;10.124;2023-01-15T07:22:03;4.25;;;0.70;;
71639;SDS011;60912;48.968;10.124;2023-01-15T07:24:29;1.53;;;0.40;;
71639;SDS011;60912;48.968;10.124;2023-01-15T07:26:54;2.08;;;0.70;;
71639;SDS011;60912;48.968;10.124;2023-01-15T07:29:20;1.60;;;0.60;;
71639;SDS011;60912;48.968;10.124;2023-01-15T07:31:45;2.25;;;0.88;;
71639;SDS011;60912;48.968;10.124;2023-01-15T07:34:11;3.43;;;1.27;;
71639;SDS011;60912;48.968;10.124;2023-01-15T07:36:36;1.20;;;0.50;;
71639;SDS011;60912;48.968;10.124;2023-01-15T07:39:03;1.20;;;0.47;;
71639;SDS011;60912;48.968;10.124;2023-01-15T07:41:32;0.60;;;0.40;;
71639;SDS011;60912;48.968;10.124;2023-01-15T07:44:16;1.40;;;0.40;;
71639;SDS011;60912;48.968;10.124;2023-01-15T07:47:00;1.52;;;0.40;;
71639;SDS011;60912;48.968;10.124;2023-01-15T07:49:45;1.77;;;0.30;;
71639;SDS011;60912;48.968;10.124;2023-01-15T07:52:15;1.33;;;1.00;;
71639;SDS011;60912;48.968;10.124;2023-01-15T07:54:42;2.17;;;0.50;;
71639;SDS011;60912;48.968;10.124;2023-01-15T07:57:08;2.03;;;0.50;;
71639;SDS011;60912;48.968;10.124;2023-01-15T07:59:35;0.73;;;0.30;;
71639;SDS011;60912;48.968;10.124;2023-01-15T08:02:00;0.50;;;0.30;;
71639;SDS011;60912;48.968;10.124;2023-01-15T08:04:25;0.43;;;0.20;;
71639;SDS011;60912;48.968;10.124;2023-01-15T08:06:51;0.93;;;0.40;;
71639;SDS011;60912;48.968;10.124;2023-01-15T08:09:16;1.05;;;0.30;;
71639;SDS011;60912;48.968;10.124;2023-01-15T08:11:41;0.33;;;0.20;;
71639;SDS011;60912;48.968;10.124;2023-01-15T08:14:25;0.45;;;0.28;;
71639;SDS011;60912;48.968;10.124;2023-01-15T08:17:09;1.03;;;0.20;;
71639;SDS011;60912;48.968;10.124;2023-01-15T08:19:34;0.70;;;0.30;;
71639;SDS011;60912;48.968;10.124;2023-01-15T08:22:00;1.45;;;0.30;;
71639;SDS011;60912;48.968;10.124;2023-01-15T08:24:25;0.30;;;0.20;;
71639;SDS011;60912;48.968;10.124;2023-01-15T08:26:51;0.60;;;0.30;;
71639;SDS011;60912;48.968;10.124;2023-01-15T08:29:17;0.45;;;0.30;;
71639;SDS011;60912;48.968;10.124;2023-01-15T08:31:43;0.22;;;0.20;;
71639;SDS011;60912;48.968;10.124;2023-01-15T08:34:09;0.30;;;0.20;;
71639;SDS011;60912;48.968;10.124;2023-01-15T08:36:35;0.82;;;0.30;;
71639;SDS011;60912;48.968;10.124;2023-01-15T08:39:04;0.60;;;0.30;;
71639;SDS011;60912;48.968;10.124;2023-01-15T08:41:29;0.20;;;0.20;;
71639;SDS011;60912;48.968;10.124;2023-01-15T08:43:56;0.60;;;0.30;;
71639;SDS011;60912;48.968;10.124;2023-01-15T08:46:21;1.67;;;0.30;;
71639;SDS011;60912;48.968;10.124;2023-01-15T08:48:46;0.30;;;0.23;;
71639;SDS011;60912;48.968;10.124;2023-01-15T08:51:13;1.27;;;0.20;;
71639;SDS011;60912;48.968;10.124;2023-01-15T08:53:39;1.10;;;0.30;;
71639;SDS011;60912;48.968;10.124;2023-01-15T08:56:14;1.23;;;0.50;;
71639;SDS011;60912;48.968;10.124;2023-01-15T08:58:41;1.70;;;0.60;;
71639;SDS011;60912;48.968;10.124;2023-01-15T09:01:07;0.30;;;0.30;;
71639;SDS011;60912;48.968;10.124;2023-01-15T09:03:33;0.70;;;0.25;;
71639;SDS011;60912;48.968;10.124;2023-01-15T09:06:00;0.30;;;0.20;;
71639;SDS011;60912;48.968;10.124;2023-01-15T09:08:26;0.98;;;0.30;;
71639;SDS011;60912;48.968;10.124;2023-01-15T09:10:59;0.75;;;0.30;;
71639;SDS011;60912;48.968;10.124;2023-01-15T09:13:26;0.40;;;0.30;;
71639;SDS011;60912;48.968;10.124;2023-01-15T09:15:53;0.55;;;0.30;;
71639;SDS011;60912;48.968;10.124;2023-01-15T09:18:18;0.97;;;0.30;;
71639;SDS011;60912;48.968;10.124;2023-01-15T09:20:45;1.93;;;0.30;;
71639;SDS011;60912;48.968;10.124;2023-01-15T09:23:10;2.60;;;0.30;;
71639;SDS011;60912;48.968;10.124;2023-01-15T09:25:36;1.17;;;0.30;;
71639;SDS011;60912;48.968;10.124;2023-01-15T09:28:01;0.80;;;0.30;;
71639;SDS011;60912;48.968;10.124;2023-01-15T09:30:27;0.68;;;0.30;;
71639;SDS011;60912;48.968;10.124;2023-01-15T09:32:53;1.67;;;0.30;;
71639;SDS011;60912;48.968;10.124;2023-01-15T09:35:19;0.97;;;0.43;;
71639;SDS011;60912;48.968;10.124;2023-01-15T09:37:50;1.45;;;0.40;;
71639;SDS011;60912;48.968;10.124;2023-01-15T09:40:23;0.63;;;0.32;;
71639;SDS011;60912;48.968;10.124;2023-01-15T09:46:20;0.73;;;0.30;;
71639;SDS011;60912;48.968;10.124;2023-01-15T09:51:34;0.40;;;0.30;;
71639;SDS011;60912;48.968;10.124;2023-01-15T09:56:54;0.77;;;0.20;;
71639;SDS011;60912;48.968;10.124;2023-01-15T10:01:48;0.60;;;0.30;;
71639;SDS011;60912;48.968;10.124;2023-01-15T10:04:26;2.00;;;0.50;;
71639;SDS011;60912;48.968;10.124;2023-01-15T10:07:01;0.73;;;0.40;;
71639;SDS011;60912;48.968;10.124;2023-01-15T10:09:47;0.97;;;0.40;;
71639;SDS011;60912;48.968;10.124;2023-01-15T10:12:37;1.00;;;0.30;;
71639;SDS011;60912;48.968;10.124;2023-01-15T10:17:38;0.60;;;0.30;;
71639;SDS011;60912;48.968;10.124;2023-01-15T10:20:13;0.50;;;0.30;;
71639;SDS011;60912;48.968;10.124;2023-01-15T10:31:50;1.10;;;0.30;;
71639;SDS011;60912;48.968;10.124;2023-01-15T10:37:32;0.83;;;0.40;;
71639;SDS011;60912;48.968;10.124;2023-01-15T10:46:11;0.80;;;0.30;;
71639;SDS011;60912;48.968;10.124;2023-01-15T10:48:46;1.40;;;0.50;;
71639;SDS011;60912;48.968;10.124;2023-01-15T10:51:15;0.33;;;0.20;;
71639;SDS011;60912;48.968;10.124;2023-01-15T10:54:07;2.17;;;0.60;;
71639;SDS011;60912;48.968;10.124;2023-01-15T11:04:49;1.80;;;0.30;;
71639;SDS011;60912;48.968;10.124;2023-01-15T11:07:18;0.55;;;0.30;;
71639;SDS011;60912;48.968;10.124;2023-01-15T11:09:50;1.47;;;0.40;;
71639;SDS011;60912;48.968;10.124;2023-01-15T11:12:21;0.50;;;0.30;;
71639;SDS011;60912;48.968;10.124;2023-01-15T11:14:50;0.77;;;0.30;;
71639;SDS011;60912;48.968;10.124;2023-01-15T11:17:35;0.95;;;0.30;;
71639;SDS011;60912;48.968;10.124;2023-01-15T11:23:05;1.67;;;0.40;;
71639;SDS011;60912;48.968;10.124;2023-01-15T11:25:34;0.60;;;0.30;;
71639;SDS011;60912;48.968;10.124;2023-01-15T11:28:12;0.90;;;0.30;;
71639;SDS011;60912;48.968;10.124;2023-01-15T11:30:59;2.15;;;0.40;;
71639;SDS011;60912;48.968;10.124;2023-01-15T11:33:26;1.92;;;0.50;;
71639;SDS011;60912;48.968;10.124;2023-01-15T11:36:22;0.90;;;0.33;;
71639;SDS011;60912;48.968;10.124;2023-01-15T11:38:54;0.88;;;0.30;;
71639;SDS011;60912;48.968;10.124;2023-01-15T11:44:11;2.17;;;0.70;;
71639;SDS011;60912;48.968;10.124;2023-01-15T11:46:56;1.38;;;0.30;;
71639;SDS011;60912;48.968;10.124;2023-01-15T11:49:48;1.97;;;0.40;;
71639;SDS011;60912;48.968;10.124;2023-01-15T11:52:36;2.28;;;0.43;;
71639;SDS011;60912;48.968;10.124;2023-01-15T11:55:09;2.65;;;0.60;;
71639;SDS011;60912;48.968;10.124;2023-01-15T11:57:37;8.95;;;2.45;;
71639;SDS011;60912;48.968;10.124;2023-01-15T12:00:03;1.77;;;0.50;;
71639;SDS011;60912;48.968;10.124;2023-01-15T12:02:31;0.60;;;0.30;;
71639;SDS011;60912;48.968;10.124;2023-01-15T12:05:12;0.70;;;0.30;;
71639;SDS011;60912;48.968;10.124;2023-01-15T12:07:41;0.82;;;0.30;;
71639;SDS011;60912;48.968;10.124;2023-01-15T12:19:00;2.05;;;0.28;;
71639;SDS011;60912;48.968;10.124;2023-01-15T12:24:09;0.80;;;0.30;;
71639;SDS011;60912;48.968;10.124;2023-01-15T12:29:42;0.70;;;0.30;;
71639;SDS011;60912;48.968;10.124;2023-01-15T12:32:23;0.77;;;0.30;;
71639;SDS011;60912;48.968;10.124;2023-01-15T12:35:01;1.00;;;0.40;;
71639;SDS011;60912;48.968;10.124;2023-01-15T12:42:38;2.70;;;0.60;;
71639;SDS011;60912;48.968;10.124;2023-01-15T12:45:25;2.30;;;0.40;;
71639;SDS011;60912;48.968;10.124;2023-01-15T12:53:14;1.42;;;0.40;;
71639;SDS011;60912;48.968;10.124;2023-01-15T12:56:30;1.02;;;0.30;;
71639;SDS011;60912;48.968;10.124;2023-01-15T12:58:39;0.88;;;0.30;;
71639;SDS011;60912;48.968;10.124;2023-01-15T13:01:16;3.72;;;0.50;;
71639;SDS011;60912;48.968;10.124;2023-01-15T13:06:31;1.08;;;0.50;;
71639;SDS011;60912;48.968;10.124;2023-01-15T13:09:24;3.20;;;0.73;;
71639;SDS011;60912;48.968;10.124;2023-01-15T13:12:10;1.42;;;0.70;;
71639;SDS011;60912;48.968;10.124;2023-01-15T13:14:40;1.80;;;0.57;;
71639;SDS011;60912;48.968;10.124;2023-01-15T13:22:32;1.20;;;0.50;;
71639;SDS011;60912;48.968;10.124;2023-01-15T13:28:00;1.98;;;0.60;;
71639;SDS011;60912;48.968;10.124;2023-01-15T13:30:48;1.83;;;0.60;;
71639;SDS011;60912;48.968;10.124;2023-01-15T13:33:34;2.50;;;0.40;;
71639;SDS011;60912;48.968;10.124;2023-01-15T13:36:07;2.53;;;0.40;;
71639;SDS011;60912;48.968;10.124;2023-01-15T13:38:57;3.10;;;1.10;;
71639;SDS011;60912;48.968;10.124;2023-01-15T13:41:28;2.15;;;0.40;;
71639;SDS011;60912;48.968;10.124;2023-01-15T13:44:17;1.47;;;0.50;;
71639;SDS011;60912;48.968;10.124;2023-01-15T13:47:07;2.92;;;0.40;;
71639;SDS011;60912;48.968;10.124;2023-01-15T13:49:35;2.95;;;0.40;;
71639;SDS011;60912;48.968;10.124;2023-01-15T13:54:52;0.90;;;0.40;;
71639;SDS011;60912;48.968;10.124;2023-01-15T13:57:33;1.60;;;0.40;;
71639;SDS011;60912;48.968;10.124;2023-01-15T14:05:57;1.45;;;0.40;;
71639;SDS011;60912;48.968;10.124;2023-01-15T14:08:43;1.77;;;0.50;;
71639;SDS011;60912;48.968;10.124;2023-01-15T14:26:14;1.63;;;0.60;;
71639;SDS011;60912;48.968;10.124;2023-01-15T14:35:09;2.42;;;0.40;;
71639;SDS011;60912;48.968;10.124;2023-01-15T14:37:52;2.08;;;0.60;;
71639;SDS011;60912;48.968;10.124;2023-01-15T14:40:26;2.10;;;0.50;;
71639;SDS011;60912;48.968;10.124;2023-01-15T14:43:05;1.63;;;0.50;;
71639;SDS011;60912;48.968;10.124;2023-01-15T14:45:47;1.55;;;0.50;;
71639;SDS011;60912;48.968;10.124;2023-01-15T14:48:35;1.85;;;0.50;;
71639;SDS011;60912;48.968;10.124;2023-01-15T14:51:28;2.20;;;0.68;;
71639;SDS011;60912;48.968;10.124;2023-01-15T14:54:10;1.87;;;0.50;;
71639;SDS011;60912;48.968;10.124;2023-01-15T14:56:52;1.30;;;0.57;;
71639;SDS011;60912;48.968;10.124;2023-01-15T15:02:17;2.30;;;0.75;;
71639;SDS011;60912;48.968;10.124;2023-01-15T15:04:57;2.95;;;0.60;;
71639;SDS011;60912;48.968;10.124;2023-01-15T15:07:51;1.70;;;0.50;;
71639;SDS011;60912;48.968;10.124;2023-01-15T15:10:45;2.42;;;0.50;;
71639;SDS011;60912;48.968;10.124;2023-01-15T15:13:33;2.88;;;0.68;;
71639;SDS011;60912;48.968;10.124;2023-01-15T15:16:22;3.83;;;0.77;;
71639;SDS011;60912;48.968;10.124;2023-01-15T15:19:13;2.45;;;0.63;;
71639;SDS011;60912;48.968;10.124;2023-01-15T15:21:48;2.77;;;0.60;;
71639;SDS011;60912;48.968;10.124;2023-01-15T15:24:27;1.95;;;0.75;;
71639;SDS011;60912;48.968;10.124;2023-01-15T15:30:09;2.45;;;0.80;;
71639;SDS011;60912;48.968;10.124;2023-01-15T15:32:43;4.75;;;1.52;;
71639;SDS011;60912;48.968;10.124;2023-01-15T15:35:28;8.90;;;3.00;;
71639;SDS011;60912;48.968;10.124;2023-01-15T15:37:59;11.32;;;3.63;;
71639;SDS011;60912;48.968;10.124;2023-01-15T15:40:31;28.35;;;3.08;;
71639;SDS011;60912;48.968;10.124;2023-01-15T15:46:29;7.32;;;2.83;;
71639;SDS011;60912;48.968;10.124;2023-01-15T15:49:15;6.23;;;2.50;;
71639;SDS011;60912;48.968;10.124;2023-01-15T15:54:26;5.53;;;2.20;;
71639;SDS011;60912;48.968;10.124;2023-01-15T15:57:16;7.03;;;2.60;;
71639;SDS011;60912;48.968;10.124;2023-01-15T15:59:50;5.70;;;1.90;;
71639;SDS011;60912;48.968;10.124;2023-01-15T16:05:24;3.00;;;1.38;;
71639;SDS011;60912;48.968;10.124;2023-01-15T16:07:53;4.40;;;1.38;;
71639;SDS011;60912;48.968;10.124;2023-01-15T16:10:34;4.57;;;1.45;;
71639;SDS011;60912;48.968;10.124;2023-01-15T16:13:09;3.63;;;1.30;;
71639;SDS011;60912;48.968;10.124;2023-01-15T16:15:57;5.40;;;1.70;;
71639;SDS011;60912;48.968;10.124;2023-01-15T16:18:28;5.72;;;2.50;;
71639;SDS011;60912;48.968;10.124;2023-01-15T16:20:59;9.63;;;2.65;;
71639;SDS011;60912;48.968;10.124;2023-01-15T16:23:30;8.73;;;3.65;;
71639;SDS011;60912;48.968;10.124;2023-01-15T16:26:11;7.75;;;3.70;;
71639;SDS011;60912;48.968;10.124;2023-01-15T16:28:52;5.07;;;2.10;;
71639;SDS011;60912;48.968;10.124;2023-01-15T16:31:36;6.13;;;1.92;;
71639;SDS011;60912;48.968;10.124;2023-01-15T16:34:19;7.28;;;2.53;;
71639;SDS011;60912;48.968;10.124;2023-01-15T16:36:58;4.38;;;1.40;;
71639;SDS011;60912;48.968;10.124;2023-01-15T16:39:50;3.90;;;1.85;;
71639;SDS011;60912;48.968;10.124;2023-01-15T16:42:40;6.03;;;1.90;;
71639;SDS011;60912;48.968;10.124;2023-01-15T16:45:23;5.72;;;1.67;;
71639;SDS011;60912;48.968;10.124;2023-01-15T17:03:32;6.10;;;1.98;;
71639;SDS011;60912;48.968;10.124;2023-01-15T17:06:32;6.28;;;1.60;;
71639;SDS011;60912;48.968;10.124;2023-01-15T17:09:31;4.07;;;1.60;;
71639;SDS011;60912;48.968;10.124;2023-01-15T17:18:52;4.18;;;1.33;;
71639;SDS011;60912;48.968;10.124;2023-01-15T17:24:29;3.63;;;1.30;;
71639;SDS011;60912;48.968;10.124;2023-01-15T17:26:57;3.77;;;1.10;;
71639;SDS011;60912;48.968;10.124;2023-01-15T17:29:34;3.97;;;1.20;;
71639;SDS011;60912;48.968;10.124;2023-01-15T17:35:27;10.02;;;3.40;;
71639;SDS011;60912;48.968;10.124;2023-01-15T17:40:56;6.50;;;1.50;;
71639;SDS011;60912;48.968;10.124;2023-01-15T17:43:34;3.72;;;1.35;;
71639;SDS011;60912;48.968;10.124;2023-01-15T17:46:30;3.83;;;1.00;;
71639;SDS011;60912;48.968;10.124;2023-01-15T17:49:10;3.17;;;1.00;;
71639;SDS011;60912;48.968;10.124;2023-01-15T17:51:59;3.85;;;0.93;;
71639;SDS011;60912;48.968;10.124;2023-01-15T17:58:25;2.97;;;1.17;;
71639;SDS011;60912;48.968;10.124;2023-01-15T18:01:59;2.88;;;0.85;;
71639;SDS011;60912;48.968;10.124;2023-01-15T18:05:30;4.13;;;1.50;;
71639;SDS011;60912;48.968;10.124;2023-01-15T18:08:02;4.35;;;1.55;;
71639;SDS011;60912;48.968;10.124;2023-01-15T18:10:42;3.80;;;1.13;;
71639;SDS011;60912;48.968;10.124;2023-01-15T18:13:40;3.03;;;1.02;;
71639;SDS011;60912;48.968;10.124;2023-01-15T18:16:21;3.83;;;1.40;;